Time;durP1;ratioP1;P1;durP2;ratioP2;P2;SDS_P1;SDS_P2;PMS_P1;PMS_P2;Temp;Humidity;BMP_temperature;BMP_pressure;BME280_temperature;BME280_humidity;BME280_pressure;Samples;Min_cycle;Max_cycle;Signal;HPM_P1;HPM_P2
2023/03/12 00:02:08;;;;;;;25.00;7.32;;;1.30;99.90;;;;;;5079224;28;20115;-73
2023/03/12 00:04:35;;;;;;;11.50;5.03;;;1.30;99.90;;;;;;5078365;28;20025;-73
2023/03/12 00:07:01;;;;;;;11.18;4.72;;;1.40;99.90;;;;;;5077805;28;20031;-72
2023/03/12 00:09:27;;;;;;;14.02;4.88;;;1.40;99.90;;;;;;5078785;28;20021;-72
2023/03/12 00:11:52;;;;;;;15.75;4.70;;;1.50;99.90;;;;;;5078074;28;20033;-72
2023/03/12 00:14:18;;;;;;;10.60;5.35;;;1.70;99.90;;;;;;5077544;28;20028;-73
2023/03/12 00:16:43;;;;;;;11.10;4.53;;;1.60;99.90;;;;;;5077510;28;20036;-73
2023/03/12 00:19:11;;;;;;;12.07;5.30;;;1.50;99.90;;;;;;5077637;28;20021;-73
2023/03/12 00:21:37;;;;;;;12.63;4.18;;;1.40;99.90;;;;;;5077813;28;20021;-73
2023/03/12 00:24:03;;;;;;;6.80;4.60;;;1.30;99.90;;;;;;5077808;28;20021;-73
2023/03/12 00:26:29;;;;;;;11.05;4.75;;;1.50;99.90;;;;;;5078320;28;20029;-72
2023/03/12 00:28:55;;;;;;;14.48;4.75;;;1.30;99.90;;;;;;5077672;28;20029;-72
2023/03/12 00:31:26;;;;;;;9.95;4.13;;;1.20;99.90;;;;;;5078668;28;20043;-73
2023/03/12 00:33:52;;;;;;;9.32;3.97;;;1.10;99.90;;;;;;5078076;28;20036;-72
2023/03/12 00:36:23;;;;;;;12.45;5.05;;;1.00;99.90;;;;;;5078193;28;20051;-72
2023/03/12 00:38:48;;;;;;;12.02;4.80;;;0.90;99.90;;;;;;5078296;28;20025;-72
2023/03/12 00:41:14;;;;;;;7.25;4.07;;;0.90;99.90;;;;;;5077344;28;20028;-72
2023/03/12 00:43:39;;;;;;;9.70;4.45;;;1.10;99.90;;;;;;5077350;28;20095;-72
2023/03/12 00:46:05;;;;;;;10.57;4.85;;;1.20;99.90;;;;;;5077006;28;20020;-72
2023/03/12 00:48:30;;;;;;;12.68;4.60;;;1.30;99.90;;;;;;5077004;28;20032;-71
2023/03/12 00:50:56;;;;;;;9.70;3.85;;;1.50;99.90;;;;;;5077263;28;20116;-70
2023/03/12 00:53:21;;;;;;;6.03;3.97;;;1.50;99.90;;;;;;5077100;28;20119;-70
2023/03/12 00:55:47;;;;;;;13.38;4.05;;;1.50;99.90;;;;;;5076917;28;20127;-70
2023/03/12 00:58:13;;;;;;;11.75;4.07;;;1.40;99.90;;;;;;5077179;28;20031;-70
2023/03/12 01:00:38;;;;;;;10.23;3.70;;;1.50;99.90;;;;;;5076739;28;20024;-71
2023/03/12 01:03:04;;;;;;;9.15;3.33;;;1.30;99.90;;;;;;5077515;28;20095;-70
2023/03/12 01:05:30;;;;;;;15.93;4.03;;;1.20;99.90;;;;;;5077564;28;20111;-70
2023/03/12 01:07:56;;;;;;;10.27;4.13;;;1.30;99.90;;;;;;5077694;28;20104;-70
2023/03/12 01:10:22;;;;;;;8.30;4.25;;;1.40;99.90;;;;;;5076604;28;20056;-70
2023/03/12 01:12:47;;;;;;;9.60;4.93;;;1.30;99.90;;;;;;5077366;28;20029;-70
2023/03/12 01:15:15;;;;;;;12.10;5.03;;;1.30;99.90;;;;;;5076668;28;20021;-70
2023/03/12 01:17:41;;;;;;;19.05;4.13;;;1.30;99.90;;;;;;5076487;28;20029;-70
2023/03/12 01:20:08;;;;;;;16.52;6.40;;;1.30;99.90;;;;;;5077603;28;20094;-70
2023/03/12 01:22:34;;;;;;;14.02;6.25;;;1.40;99.90;;;;;;5076138;28;20052;-70
2023/03/12 01:25:00;;;;;;;14.65;5.75;;;1.50;99.90;;;;;;5076743;28;20024;-70
2023/03/12 01:27:26;;;;;;;10.85;4.70;;;1.50;99.90;;;;;;5076100;28;20065;-71
2023/03/12 01:29:51;;;;;;;11.18;4.70;;;1.50;99.90;;;;;;5076632;28;20036;-70
2023/03/12 01:32:17;;;;;;;18.02;5.80;;;1.20;99.90;;;;;;5076520;28;20020;-70
2023/03/12 01:34:43;;;;;;;11.77;5.30;;;1.20;99.90;;;;;;5076392;28;20020;-70
2023/03/12 01:37:09;;;;;;;9.70;5.25;;;1.30;99.90;;;;;;5076175;28;20031;-71
2023/03/12 01:39:34;;;;;;;11.90;5.20;;;1.30;99.90;;;;;;5076325;28;20020;-70
2023/03/12 01:42:00;;;;;;;11.25;4.97;;;1.40;99.90;;;;;;5076068;28;20080;-70
2023/03/12 01:44:27;;;;;;;12.95;5.75;;;1.50;99.90;;;;;;5077131;28;20021;-70
2023/03/12 01:46:52;;;;;;;13.95;6.50;;;1.60;99.90;;;;;;5076126;28;20059;-70
2023/03/12 01:49:26;;;;;;;18.27;6.20;;;1.60;99.90;;;;;;5077018;28;20031;-70
2023/03/12 01:52:11;;;;;;;15.88;8.77;;;1.40;99.90;;;;;;5077026;28;20095;-70
2023/03/12 01:54:53;;;;;;;15.27;6.00;;;1.20;99.90;;;;;;5076036;28;20075;-70
2023/03/12 01:57:37;;;;;;;9.68;4.57;;;1.30;99.90;;;;;;5076843;28;20095;-70
2023/03/12 02:00:08;;;;;;;13.98;5.65;;;1.30;99.90;;;;;;5076830;28;20021;-70
2023/03/12 02:02:35;;;;;;;11.68;5.10;;;1.50;99.90;;;;;;5076597;28;20091;-70
2023/03/12 02:05:19;;;;;;;10.98;4.50;;;1.70;99.90;;;;;;5076056;28;20029;-70
2023/03/12 02:07:45;;;;;;;14.63;5.22;;;1.70;99.90;;;;;;5076336;28;20021;-70
2023/03/12 02:10:11;;;;;;;10.55;5.00;;;1.60;99.90;;;;;;5075909;28;20028;-70
2023/03/12 02:12:36;;;;;;;11.48;5.43;;;1.60;99.90;;;;;;5075753;28;20064;-70
2023/03/12 02:15:02;;;;;;;9.43;4.45;;;1.60;99.90;;;;;;5075771;28;20016;-71
2023/03/12 02:17:29;;;;;;;11.13;4.75;;;1.50;99.90;;;;;;5075806;28;20119;-70
2023/03/12 02:20:17;;;;;;;10.40;4.82;;;1.40;99.90;;;;;;5076687;28;20094;-70
2023/03/12 02:22:48;;;;;;;14.23;5.93;;;1.20;99.90;;;;;;5075702;28;20052;-70
2023/03/12 02:25:24;;;;;;;13.20;6.50;;;1.30;99.90;;;;;;5076807;28;20104;-70
2023/03/12 02:27:50;;;;;;;13.90;5.85;;;1.20;99.90;;;;;;5076673;28;20029;-70
2023/03/12 02:30:17;;;;;;;8.30;5.05;;;1.40;99.90;;;;;;5076628;28;20021;-70
2023/03/12 02:32:45;;;;;;;11.77;5.82;;;1.50;99.90;;;;;;5075912;28;20020;-70
2023/03/12 02:35:12;;;;;;;12.85;5.78;;;1.50;99.90;;;;;;5076517;28;20020;-70
2023/03/12 02:37:53;;;;;;;17.70;5.32;;;1.40;99.90;;;;;;5075694;28;20029;-70
2023/03/12 02:40:36;;;;;;;19.33;4.80;;;1.50;99.90;;;;;;5076334;28;20056;-71
2023/03/12 02:43:06;;;;;;;13.40;5.03;;;1.60;99.90;;;;;;5059111;28;20028;-72
2023/03/12 02:45:33;;;;;;;16.90;6.22;;;1.50;99.90;;;;;;5075908;28;20025;-70
2023/03/12 02:47:58;;;;;;;8.95;5.10;;;1.60;99.90;;;;;;5076651;28;20043;-70
2023/03/12 02:50:24;;;;;;;11.50;5.10;;;1.60;99.90;;;;;;5075481;28;20021;-70
2023/03/12 02:52:49;;;;;;;18.77;6.53;;;1.60;99.90;;;;;;5076253;28;20040;-70
2023/03/12 02:55:15;;;;;;;14.88;5.65;;;1.60;99.90;;;;;;5075411;28;20039;-70
2023/03/12 02:57:42;;;;;;;9.13;5.72;;;1.50;99.90;;;;;;5075442;28;20053;-70
2023/03/12 03:00:13;;;;;;;10.57;5.15;;;1.60;99.90;;;;;;5076490;28;20021;-70
2023/03/12 03:02:40;;;;;;;13.60;5.32;;;1.70;99.90;;;;;;5076160;28;20035;-70
2023/03/12 03:05:07;;;;;;;10.13;4.88;;;1.50;99.90;;;;;;5075400;28;20105;-70
2023/03/12 03:07:33;;;;;;;9.48;4.53;;;1.40;99.90;;;;;;5076260;28;20147;-70
2023/03/12 03:10:03;;;;;;;7.97;4.80;;;1.40;99.90;;;;;;5076385;28;20045;-70
2023/03/12 03:12:33;;;;;;;13.25;5.10;;;1.50;99.90;;;;;;5075461;28;20035;-71
2023/03/12 03:14:58;;;;;;;9.20;4.30;;;1.50;99.90;;;;;;5076075;28;20032;-70
2023/03/12 03:17:24;;;;;;;11.63;4.57;;;1.40;99.90;;;;;;5077417;28;20025;-70
2023/03/12 03:19:50;;;;;;;7.90;4.65;;;1.40;99.90;;;;;;5078798;28;20025;-70
2023/03/12 03:22:17;;;;;;;9.90;4.60;;;1.40;99.90;;;;;;5079612;28;20020;-71
2023/03/12 03:24:42;;;;;;;10.10;4.97;;;1.60;99.90;;;;;;5079969;28;20082;-70
2023/03/12 03:27:08;;;;;;;11.00;4.57;;;1.60;99.90;;;;;;5079019;28;20033;-71
2023/03/12 03:29:33;;;;;;;10.82;4.38;;;1.80;99.90;;;;;;5079832;28;20052;-70
2023/03/12 03:31:59;;;;;;;7.15;4.22;;;1.80;99.90;;;;;;5079247;28;20033;-70
2023/03/12 03:34:25;;;;;;;15.90;4.80;;;2.00;99.90;;;;;;5078619;28;20082;-70
2023/03/12 03:36:50;;;;;;;11.05;4.38;;;2.00;99.90;;;;;;5079443;28;20029;-70
2023/03/12 03:39:16;;;;;;;10.18;4.70;;;1.90;99.90;;;;;;5078450;28;20020;-70
2023/03/12 03:41:41;;;;;;;9.27;4.78;;;1.70;99.90;;;;;;5079264;28;20035;-70
2023/03/12 03:44:07;;;;;;;9.65;4.57;;;1.50;99.90;;;;;;5078360;28;20036;-70
2023/03/12 03:46:36;;;;;;;11.43;4.80;;;1.40;99.90;;;;;;5078852;28;20032;-70
2023/03/12 03:49:01;;;;;;;15.27;4.68;;;1.30;99.90;;;;;;5078285;28;20043;-70
2023/03/12 03:51:27;;;;;;;10.52;4.65;;;1.40;99.90;;;;;;5078226;28;20025;-70
2023/03/12 03:53:52;;;;;;;11.70;4.40;;;1.50;99.90;;;;;;5077935;28;20028;-70
2023/03/12 03:56:18;;;;;;;7.38;4.00;;;1.70;99.90;;;;;;5078255;28;20025;-70
2023/03/12 03:58:44;;;;;;;8.27;4.05;;;1.80;99.90;;;;;;5078826;28;20048;-70
2023/03/12 04:01:12;;;;;;;12.68;5.10;;;1.90;99.90;;;;;;5079027;28;20025;-70
2023/03/12 04:03:37;;;;;;;13.82;4.78;;;2.00;99.90;;;;;;5077816;28;20074;-70
2023/03/12 04:06:05;;;;;;;12.23;4.60;;;2.10;99.90;;;;;;5079017;28;20020;-72
2023/03/12 04:08:31;;;;;;;9.52;4.10;;;2.00;99.90;;;;;;5078183;28;20020;-71
2023/03/12 04:10:57;;;;;;;8.30;5.00;;;2.00;99.90;;;;;;5078135;28;20032;-71
2023/03/12 04:13:23;;;;;;;11.48;5.10;;;2.00;99.90;;;;;;5077671;28;20025;-71
2023/03/12 04:15:51;;;;;;;8.70;4.70;;;2.10;99.90;;;;;;5077738;28;20029;-75
2023/03/12 04:18:17;;;;;;;8.45;4.70;;;1.90;99.90;;;;;;5077991;28;20021;-71
2023/03/12 04:20:43;;;;;;;8.27;4.40;;;1.90;99.90;;;;;;5078575;28;20024;-72
2023/03/12 04:23:09;;;;;;;8.50;4.47;;;2.00;99.90;;;;;;5077501;28;20028;-71
2023/03/12 04:25:34;;;;;;;10.02;5.60;;;1.90;99.90;;;;;;5078394;28;20032;-71
2023/03/12 04:28:00;;;;;;;9.27;4.80;;;1.80;99.90;;;;;;5077485;28;20115;-71
2023/03/12 04:30:26;;;;;;;8.38;4.82;;;1.70;99.90;;;;;;5077465;28;20027;-71
2023/03/12 04:32:53;;;;;;;9.93;4.40;;;1.70;99.90;;;;;;5077600;28;20028;-73
2023/03/12 04:35:18;;;;;;;9.68;4.55;;;1.40;99.90;;;;;;5077327;28;20082;-71
2023/03/12 04:37:45;;;;;;;15.00;4.82;;;1.70;99.90;;;;;;5077149;28;20017;-71
2023/03/12 04:40:11;;;;;;;10.82;5.53;;;1.80;99.90;;;;;;5077712;28;20070;-76
2023/03/12 04:42:38;;;;;;;10.13;4.97;;;2.10;99.90;;;;;;5077058;28;20020;-75
2023/03/12 04:45:05;;;;;;;10.25;4.85;;;2.20;99.90;;;;;;5077444;28;20025;-75
2023/03/12 04:47:31;;;;;;;8.68;4.55;;;2.30;99.90;;;;;;5077169;28;20029;-75
2023/03/12 04:49:57;;;;;;;12.13;5.22;;;2.20;99.90;;;;;;5077029;28;20029;-76
2023/03/12 04:52:23;;;;;;;9.88;4.57;;;1.90;99.90;;;;;;5076825;28;20039;-72
2023/03/12 04:54:49;;;;;;;10.65;5.60;;;1.60;99.90;;;;;;5077623;28;20031;-73
2023/03/12 04:57:15;;;;;;;11.55;5.20;;;1.30;99.90;;;;;;5077858;28;20017;-72
2023/03/12 04:59:41;;;;;;;12.90;4.85;;;1.20;99.90;;;;;;5077937;28;20099;-73
2023/03/12 05:02:06;;;;;;;8.27;4.75;;;1.30;99.90;;;;;;5099569;22;20031;-65
2023/03/12 05:04:32;;;;;;;8.25;5.43;;;1.20;99.90;;;;;;5058219;28;20100;-65
2023/03/12 05:06:57;;;;;;;11.43;5.10;;;1.40;99.90;;;;;;5057657;28;20028;-65
2023/03/12 05:09:23;;;;;;;11.93;5.15;;;1.60;99.90;;;;;;5056998;28;20025;-65
2023/03/12 05:11:48;;;;;;;11.95;4.65;;;1.70;99.90;;;;;;5057438;28;20021;-65
2023/03/12 05:14:14;;;;;;;10.30;4.85;;;1.80;99.90;;;;;;5038820;28;20022;-65
2023/03/12 05:16:39;;;;;;;8.63;5.15;;;1.90;99.90;;;;;;5039539;28;20024;-66
2023/03/12 05:19:05;;;;;;;8.63;5.10;;;2.00;99.90;;;;;;5036755;28;20018;-65
2023/03/12 05:21:31;;;;;;;11.35;5.55;;;2.10;99.90;;;;;;5036512;28;20021;-64
2023/03/12 05:23:58;;;;;;;13.73;5.60;;;2.20;99.90;;;;;;5037903;28;20029;-65
2023/03/12 05:26:26;;;;;;;9.55;5.60;;;2.20;99.90;;;;;;5052200;28;20029;-65
2023/03/12 05:28:52;;;;;;;9.75;4.75;;;2.10;99.90;;;;;;5053593;28;20029;-65
2023/03/12 05:31:18;;;;;;;13.10;5.53;;;2.10;99.90;;;;;;5056467;28;20024;-65
2023/03/12 05:33:44;;;;;;;11.52;4.57;;;2.20;99.90;;;;;;5056690;28;20017;-65
2023/03/12 05:36:11;;;;;;;13.32;5.43;;;2.10;99.90;;;;;;5056280;28;20031;-65
2023/03/12 05:38:37;;;;;;;17.50;6.13;;;1.90;99.90;;;;;;5041965;28;20033;-64
2023/03/12 05:41:03;;;;;;;11.30;4.85;;;1.80;99.90;;;;;;5035386;28;20026;-64
2023/03/12 05:43:28;;;;;;;9.13;4.57;;;1.90;99.90;;;;;;5039200;28;20068;-65
2023/03/12 05:45:58;;;;;;;11.82;4.80;;;2.10;99.90;;;;;;5036178;28;20056;-64
2023/03/12 05:48:24;;;;;;;11.15;4.47;;;2.00;99.90;;;;;;5036438;28;20028;-65
2023/03/12 05:50:49;;;;;;;11.70;5.07;;;2.00;99.90;;;;;;5037148;28;20029;-65
2023/03/12 05:53:15;;;;;;;10.23;4.30;;;2.10;99.90;;;;;;5053455;28;20091;-64
2023/03/12 05:55:40;;;;;;;9.07;5.10;;;2.10;99.90;;;;;;5056488;28;20021;-64
2023/03/12 05:58:06;;;;;;;8.68;4.85;;;1.80;99.90;;;;;;5055981;28;20126;-64
2023/03/12 06:00:36;;;;;;;10.27;5.03;;;1.70;99.90;;;;;;5055947;28;20028;-64
2023/03/12 06:03:01;;;;;;;10.57;4.80;;;1.80;99.90;;;;;;5055775;28;20037;-65
2023/03/12 06:05:27;;;;;;;9.43;4.68;;;1.80;99.90;;;;;;5056801;28;20133;-63
2023/03/12 06:07:52;;;;;;;16.10;5.47;;;2.00;99.90;;;;;;5056313;28;20025;-63
2023/03/12 06:10:18;;;;;;;10.32;4.18;;;2.00;99.90;;;;;;5055846;28;20043;-64
2023/03/12 06:12:44;;;;;;;11.82;5.07;;;1.90;99.90;;;;;;5045884;28;20022;-64
2023/03/12 06:15:09;;;;;;;7.07;4.25;;;1.70;99.90;;;;;;5036122;28;20117;-64
2023/03/12 06:17:35;;;;;;;15.20;4.93;;;1.70;99.90;;;;;;5036973;28;20025;-64
2023/03/12 06:20:00;;;;;;;14.98;6.28;;;1.60;99.90;;;;;;5035845;28;20033;-64
2023/03/12 06:22:27;;;;;;;12.18;4.50;;;1.60;99.90;;;;;;5035694;28;20057;-64
2023/03/12 06:24:53;;;;;;;9.50;4.20;;;1.70;99.90;;;;;;5043861;28;20121;-63
2023/03/12 06:27:19;;;;;;;10.38;4.22;;;1.80;99.90;;;;;;5047745;28;20052;-64
2023/03/12 06:29:46;;;;;;;6.95;4.18;;;1.90;99.90;;;;;;5055486;28;20045;-64
2023/03/12 06:32:12;;;;;;;10.32;4.55;;;2.00;99.90;;;;;;5055451;28;20032;-64
2023/03/12 06:34:37;;;;;;;8.35;4.25;;;2.00;99.90;;;;;;5056589;28;20032;-64
2023/03/12 06:37:03;;;;;;;7.18;4.07;;;2.10;99.90;;;;;;5056043;28;20021;-64
2023/03/12 06:39:29;;;;;;;7.32;4.40;;;2.00;99.90;;;;;;5050188;28;20017;-64
2023/03/12 06:41:54;;;;;;;7.93;3.67;;;2.00;99.90;;;;;;5053596;28;20021;-64
2023/03/12 06:44:20;;;;;;;13.77;3.97;;;1.90;99.90;;;;;;5035684;28;20036;-64
2023/03/12 06:46:46;;;;;;;7.75;3.45;;;1.90;99.90;;;;;;5053590;28;20025;-63
2023/03/12 06:49:11;;;;;;;8.40;3.80;;;2.00;99.90;;;;;;5042860;28;20026;-64
2023/03/12 06:51:37;;;;;;;10.45;4.25;;;2.20;99.90;;;;;;5038328;28;20064;-63
2023/03/12 06:54:03;;;;;;;7.18;3.50;;;2.30;99.90;;;;;;5043104;28;20017;-63
2023/03/12 06:56:29;;;;;;;9.13;4.35;;;2.10;99.90;;;;;;5059471;28;20028;-64
2023/03/12 06:58:55;;;;;;;8.48;3.85;;;2.10;99.90;;;;;;5060182;28;20025;-63
2023/03/12 07:01:21;;;;;;;12.50;3.85;;;2.00;99.90;;;;;;5044323;28;20028;-64
2023/03/12 07:03:47;;;;;;;9.65;3.50;;;2.10;99.90;;;;;;5039971;28;20029;-63
2023/03/12 07:06:18;;;;;;;9.35;3.70;;;2.20;99.90;;;;;;5039445;28;20029;-63
2023/03/12 07:08:44;;;;;;;6.90;3.63;;;2.20;99.90;;;;;;5040070;28;20037;-63
2023/03/12 07:11:10;;;;;;;7.45;3.70;;;2.40;99.90;;;;;;5039604;28;20018;-67
2023/03/12 07:13:37;;;;;;;6.45;3.65;;;2.50;99.90;;;;;;5039747;28;20025;-68
2023/03/12 07:16:03;;;;;;;7.70;3.72;;;2.40;99.90;;;;;;5039726;28;20017;-67
2023/03/12 07:18:28;;;;;;;7.82;3.60;;;2.40;99.90;;;;;;5051065;28;20036;-68
2023/03/12 07:20:54;;;;;;;10.98;3.40;;;2.60;99.90;;;;;;5059093;28;20045;-68
2023/03/12 07:23:20;;;;;;;8.25;3.92;;;2.70;99.90;;;;;;5058724;28;20111;-67
2023/03/12 07:25:46;;;;;;;9.88;3.65;;;2.70;99.90;;;;;;5050658;28;20025;-68
2023/03/12 07:28:13;;;;;;;8.75;3.83;;;2.60;99.90;;;;;;5043579;28;20029;-68
2023/03/12 07:30:39;;;;;;;11.68;3.58;;;2.90;99.90;;;;;;5052737;28;20029;-68
2023/03/12 07:33:10;;;;;;;5.43;3.22;;;3.00;99.90;;;;;;5039005;28;20061;-68
2023/03/12 07:35:40;;;;;;;6.72;2.75;;;2.80;99.90;;;;;;5043034;28;20025;-68
2023/03/12 07:38:06;;;;;;;7.55;3.10;;;3.10;99.90;;;;;;5044665;28;20018;-67
2023/03/12 07:40:32;;;;;;;5.53;2.45;;;3.20;99.90;;;;;;5038822;28;20049;-67
2023/03/12 07:42:57;;;;;;;8.07;3.42;;;3.30;99.90;;;;;;5039251;28;20038;-67
2023/03/12 07:45:24;;;;;;;10.52;2.72;;;3.10;99.90;;;;;;5038307;28;20074;-67
2023/03/12 07:47:49;;;;;;;5.90;2.63;;;3.10;99.90;;;;;;5038923;28;20104;-67
2023/03/12 07:50:16;;;;;;;7.13;2.60;;;3.30;99.90;;;;;;5039767;28;20041;-68
2023/03/12 07:52:42;;;;;;;6.65;2.75;;;3.40;99.90;;;;;;5039455;28;20033;-68
2023/03/12 07:55:08;;;;;;;9.88;3.00;;;3.30;99.90;;;;;;5038310;28;20018;-68
2023/03/12 07:57:34;;;;;;;6.32;2.95;;;3.30;99.90;;;;;;5039780;28;20030;-68
2023/03/12 07:59:59;;;;;;;10.07;3.22;;;3.40;99.90;;;;;;5038558;28;20075;-69
2023/03/12 08:02:25;;;;;;;9.18;3.83;;;3.30;99.90;;;;;;5039009;28;20039;-68
2023/03/12 08:04:50;;;;;;;8.10;3.42;;;3.00;99.90;;;;;;5038453;28;20064;-64
2023/03/12 08:07:16;;;;;;;8.40;3.38;;;2.80;99.90;;;;;;5038040;28;20036;-64
2023/03/12 08:09:41;;;;;;;13.52;3.80;;;2.60;99.90;;;;;;5038799;28;20021;-64
2023/03/12 08:12:07;;;;;;;11.82;3.58;;;2.50;99.90;;;;;;5039171;28;20026;-65
2023/03/12 08:14:34;;;;;;;11.02;4.18;;;2.50;99.90;;;;;;5039140;28;20024;-64
2023/03/12 08:16:59;;;;;;;13.27;4.10;;;2.50;99.90;;;;;;5037812;28;20029;-65
2023/03/12 08:19:26;;;;;;;7.25;3.63;;;2.60;99.90;;;;;;5038640;28;20022;-64
2023/03/12 08:21:52;;;;;;;16.75;4.00;;;2.70;99.90;;;;;;5039014;28;20025;-65
2023/03/12 08:24:20;;;;;;;11.75;3.70;;;3.00;99.90;;;;;;5037630;28;20058;-64
2023/03/12 08:26:46;;;;;;;7.97;4.30;;;3.10;99.90;;;;;;5039114;28;20071;-64
2023/03/12 08:29:11;;;;;;;8.25;3.97;;;3.00;99.90;;;;;;5038616;28;20030;-64
2023/03/12 08:31:37;;;;;;;7.82;3.90;;;2.80;99.90;;;;;;5037558;28;20057;-64
2023/03/12 08:34:03;;;;;;;6.70;4.05;;;2.90;99.90;;;;;;5038236;28;20053;-64
2023/03/12 08:36:28;;;;;;;5.75;3.65;;;3.00;99.90;;;;;;5038288;28;20026;-64
2023/03/12 08:38:54;;;;;;;9.60;4.05;;;3.00;99.90;;;;;;5037434;28;20052;-64
2023/03/12 08:41:20;;;;;;;8.98;4.03;;;3.00;99.90;;;;;;5038847;28;20051;-65
2023/03/12 08:43:45;;;;;;;8.98;4.57;;;3.20;99.90;;;;;;5037368;28;20049;-65
2023/03/12 08:46:11;;;;;;;12.90;4.82;;;3.30;99.90;;;;;;5038271;28;20018;-65
2023/03/12 08:48:37;;;;;;;9.98;4.68;;;3.30;99.90;;;;;;5038295;28;20017;-65
2023/03/12 08:51:04;;;;;;;11.55;4.10;;;3.30;99.90;;;;;;5037143;28;20026;-64
2023/03/12 08:53:32;;;;;;;9.32;4.18;;;3.10;99.90;;;;;;5038041;28;20129;-65
2023/03/12 08:55:58;;;;;;;10.32;4.00;;;3.00;99.90;;;;;;5037970;28;20104;-66
2023/03/12 08:58:24;;;;;;;10.90;4.57;;;3.10;99.90;;;;;;5037180;28;20089;-65
2023/03/12 09:00:51;;;;;;;11.55;4.50;;;3.20;99.90;;;;;;5038191;28;20060;-66
2023/03/12 09:03:17;;;;;;;8.30;4.15;;;3.40;99.90;;;;;;5037754;28;20037;-66
2023/03/12 09:05:43;;;;;;;10.85;3.90;;;3.30;99.90;;;;;;5036938;28;20032;-65
2023/03/12 09:08:10;;;;;;;13.07;5.32;;;3.10;99.90;;;;;;5037153;28;20039;-65
2023/03/12 09:10:37;;;;;;;10.75;4.28;;;3.10;99.90;;;;;;5036929;28;20025;-66
2023/03/12 09:13:04;;;;;;;11.13;5.55;;;3.30;99.90;;;;;;5037296;28;20035;-66
2023/03/12 09:15:30;;;;;;;10.80;3.58;;;3.40;99.90;;;;;;5037630;28;20064;-66
2023/03/12 09:17:56;;;;;;;10.80;4.18;;;3.40;99.90;;;;;;5038445;28;20021;-64
2023/03/12 09:20:22;;;;;;;8.00;4.10;;;3.50;99.90;;;;;;5057441;28;20028;-66
2023/03/12 09:22:48;;;;;;;5.35;3.50;;;3.40;99.90;;;;;;5056512;28;20059;-66
2023/03/12 09:25:14;;;;;;;8.60;4.50;;;3.40;99.90;;;;;;5057154;28;20064;-66
2023/03/12 09:27:45;;;;;;;7.53;4.03;;;3.30;99.90;;;;;;5057411;28;20025;-66
2023/03/12 09:30:17;;;;;;;8.95;4.43;;;3.40;99.90;;;;;;5056364;28;20116;-65
2023/03/12 09:32:46;;;;;;;9.88;4.00;;;3.20;99.90;;;;;;5056331;28;20093;-65
2023/03/12 09:35:14;;;;;;;13.77;4.43;;;3.30;99.90;;;;;;5056593;28;20017;-65
2023/03/12 09:37:40;;;;;;;11.05;4.50;;;3.40;99.90;;;;;;5057198;28;20147;-65
2023/03/12 09:40:07;;;;;;;10.80;4.13;;;3.40;99.90;;;;;;5056600;28;20024;-66
2023/03/12 09:42:45;;;;;;;9.10;4.10;;;3.40;99.90;;;;;;5057271;28;20037;-65
2023/03/12 09:45:19;;;;;;;8.40;4.35;;;3.30;99.90;;;;;;5056228;28;20025;-65
2023/03/12 09:47:50;;;;;;;10.23;4.18;;;3.50;99.90;;;;;;5057887;28;20059;-65
2023/03/12 09:50:32;;;;;;;7.28;4.63;;;3.50;99.90;;;;;;5056309;28;20021;-65
2023/03/12 09:53:14;;;;;;;12.25;4.65;;;3.60;99.90;;;;;;5057465;28;20028;-66
2023/03/12 09:55:43;;;;;;;8.05;4.25;;;3.70;99.90;;;;;;5057345;28;20063;-69
2023/03/12 09:58:23;;;;;;;16.52;5.25;;;3.60;99.90;;;;;;5056156;28;20039;-69
2023/03/12 10:00:49;;;;;;;8.55;4.40;;;3.50;99.90;;;;;;5057181;28;20053;-69
2023/03/12 10:03:28;;;;;;;11.63;5.25;;;3.40;99.90;;;;;;5050313;28;20063;-70
2023/03/12 10:06:16;;;;;;;11.73;4.93;;;3.70;99.90;;;;;;5054372;28;20031;-69
2023/03/12 10:09:22;;;;;;;12.88;5.25;;;3.60;99.90;;;;;;5037326;28;20022;-70
2023/03/12 10:11:56;;;;;;;8.50;5.32;;;3.60;99.90;;;;;;5036021;28;20033;-69
2023/03/12 10:14:40;;;;;;;14.45;6.03;;;3.60;99.90;;;;;;5036949;28;20022;-70
2023/03/12 10:17:45;;;;;;;10.95;5.35;;;3.70;99.90;;;;;;5036816;28;20021;-69
2023/03/12 10:20:38;;;;;;;14.23;5.95;;;3.80;99.90;;;;;;5037101;28;20071;-70
2023/03/12 10:23:27;;;;;;;10.50;5.80;;;4.00;99.90;;;;;;5037278;28;20022;-70
2023/03/12 10:26:02;;;;;;;9.65;6.47;;;4.10;99.90;;;;;;5036482;28;20021;-69
2023/03/12 10:28:38;;;;;;;10.60;5.75;;;4.20;99.90;;;;;;5040805;28;20033;-69
2023/03/12 10:31:41;;;;;;;12.43;6.20;;;4.00;99.90;;;;;;5040259;28;20026;-69
2023/03/12 10:34:17;;;;;;;11.52;7.03;;;4.00;99.90;;;;;;5040380;28;20031;-69
2023/03/12 10:36:44;;;;;;;12.60;6.55;;;4.20;99.90;;;;;;5040579;28;20053;-70
2023/03/12 10:39:17;;;;;;;11.45;6.68;;;4.20;99.90;;;;;;5040642;28;20051;-69
2023/03/12 10:41:45;;;;;;;11.43;7.38;;;4.30;99.90;;;;;;5039752;28;20025;-66
2023/03/12 10:44:20;;;;;;;12.32;7.35;;;4.20;99.90;;;;;;5039866;28;20052;-66
2023/03/12 10:46:51;;;;;;;14.02;7.55;;;4.10;99.90;;;;;;5040888;28;20021;-66
2023/03/12 10:49:20;;;;;;;17.15;9.07;;;4.10;99.90;;;;;;5039856;28;20030;-66
2023/03/12 10:51:57;;;;;;;16.67;8.02;;;4.20;99.90;;;;;;5040433;28;20030;-67
2023/03/12 10:54:39;;;;;;;15.57;7.53;;;4.40;99.90;;;;;;5039566;28;20079;-66
2023/03/12 10:57:06;;;;;;;16.48;7.82;;;4.20;99.90;;;;;;5040613;28;20021;-66
2023/03/12 10:59:35;;;;;;;17.75;8.60;;;4.30;99.90;;;;;;5039374;28;20037;-67
2023/03/12 11:02:21;;;;;;;16.42;9.45;;;4.40;99.90;;;;;;5040105;28;20043;-67
2023/03/12 11:04:51;;;;;;;16.42;8.73;;;4.50;99.90;;;;;;5040600;28;20042;-69
2023/03/12 11:07:31;;;;;;;22.33;9.05;;;4.30;99.90;;;;;;5039375;28;20033;-69
2023/03/12 11:10:05;;;;;;;23.30;10.30;;;4.10;99.90;;;;;;5040027;28;20104;-69
2023/03/12 11:12:33;;;;;;;15.82;8.90;;;4.20;99.90;;;;;;5039569;28;20030;-69
2023/03/12 11:14:59;;;;;;;17.60;9.63;;;4.40;99.90;;;;;;5040008;28;20036;-69
2023/03/12 11:17:28;;;;;;;21.40;9.85;;;4.40;99.90;;;;;;5039899;28;20018;-68
2023/03/12 11:19:54;;;;;;;19.63;8.60;;;4.20;99.90;;;;;;5038991;28;20028;-68
2023/03/12 11:22:32;;;;;;;17.92;8.80;;;4.00;99.90;;;;;;5038857;28;20021;-68
2023/03/12 11:25:01;;;;;;;18.38;9.30;;;4.00;99.90;;;;;;5039844;28;20033;-68
2023/03/12 11:27:41;;;;;;;18.83;8.95;;;4.30;99.90;;;;;;5040012;28;20040;-68
2023/03/12 11:30:12;;;;;;;24.85;10.10;;;4.00;99.90;;;;;;5040043;28;20025;-68
2023/03/12 11:32:44;;;;;;;;;;;4.00;99.90;;;;;;5022877;28;20069;-68
2023/03/12 11:35:12;;;;;;;19.80;9.50;;;3.90;99.90;;;;;;5038760;28;19904;-68
2023/03/12 11:37:49;;;;;;;24.45;11.05;;;3.90;99.90;;;;;;5047582;28;20017;-68
2023/03/12 11:40:33;;;;;;;24.90;9.88;;;3.80;99.90;;;;;;5059774;28;20020;-68
2023/03/12 11:43:08;;;;;;;20.33;10.30;;;4.10;99.90;;;;;;5058538;28;20032;-68
2023/03/12 11:45:54;;;;;;;22.17;10.32;;;3.90;99.90;;;;;;5058487;28;20075;-68
2023/03/12 11:48:59;;;;;;;27.00;11.18;;;3.80;99.90;;;;;;5059484;28;20025;-68
2023/03/12 11:51:44;;;;;;;23.85;10.50;;;4.20;99.90;;;;;;5047362;28;20033;-68
2023/03/12 11:54:30;;;;;;;21.98;10.40;;;4.30;99.90;;;;;;5058266;28;20060;-68
2023/03/12 11:57:06;;;;;;;23.23;10.00;;;4.20;99.90;;;;;;5058406;28;20029;-68
2023/03/12 12:00:07;;;;;;;23.70;10.80;;;4.30;99.90;;;;;;5058316;28;20024;-68
2023/03/12 12:02:53;;;;;;;24.80;10.95;;;4.30;99.90;;;;;;5058911;28;20036;-68
2023/03/12 12:05:26;;;;;;;22.40;10.32;;;4.30;99.90;;;;;;5058879;28;20047;-68
2023/03/12 12:08:13;;;;;;;24.52;12.00;;;4.10;99.90;;;;;;5058465;28;20029;-69
2023/03/12 12:10:50;;;;;;;26.50;11.82;;;4.10;99.90;;;;;;5058936;28;20033;-68
2023/03/12 12:13:47;;;;;;;27.30;10.88;;;4.30;99.90;;;;;;5057800;28;20083;-69
2023/03/12 12:16:48;;;;;;;26.77;11.63;;;4.30;99.90;;;;;;5057783;28;20111;-68
2023/03/12 12:19:37;;;;;;;24.10;9.70;;;4.50;99.90;;;;;;5057822;28;20036;-68
2023/03/12 12:22:44;;;;;;;22.95;11.00;;;4.70;99.90;;;;;;5058844;28;20025;-67
2023/03/12 12:25:25;;;;;;;21.73;10.27;;;4.70;99.90;;;;;;5057713;28;20029;-68
2023/03/12 12:28:02;;;;;;;26.42;11.90;;;4.50;99.90;;;;;;5058574;28;20047;-67
2023/03/12 12:31:15;;;;;;;21.80;10.50;;;4.70;99.90;;;;;;5057640;28;20029;-67
2023/03/12 12:34:02;;;;;;;25.27;10.50;;;4.60;99.90;;;;;;5057937;28;20020;-67
2023/03/12 12:36:32;;;;;;;25.15;11.98;;;4.30;99.90;;;;;;5058755;28;20021;-67
2023/03/12 12:39:05;;;;;;;28.80;11.85;;;4.40;99.90;;;;;;5058026;28;20017;-68
2023/03/12 12:42:02;;;;;;;27.75;10.65;;;4.50;99.90;;;;;;5057464;28;20031;-67
2023/03/12 12:44:37;;;;;;;28.10;12.75;;;4.50;99.90;;;;;;5057515;28;20048;-67
2023/03/12 12:47:11;;;;;;;25.58;11.07;;;4.40;99.90;;;;;;5058241;28;20021;-67
2023/03/12 12:49:45;;;;;;;27.15;12.18;;;4.30;99.90;;;;;;5058143;28;20021;-67
2023/03/12 12:52:14;;;;;;;28.35;12.05;;;4.40;99.90;;;;;;5057974;28;20104;-68
2023/03/12 12:55:05;;;;;;;32.30;13.05;;;4.30;99.90;;;;;;5057119;28;20048;-67
2023/03/12 12:57:50;;;;;;;26.65;12.13;;;4.30;99.90;;;;;;5057228;28;20029;-68
2023/03/12 13:00:38;;;;;;;27.13;13.20;;;4.30;99.90;;;;;;5057121;28;20028;-68
2023/03/12 13:03:04;;;;;;;25.20;11.93;;;4.50;99.90;;;;;;5057416;28;20037;-68
2023/03/12 13:05:35;;;;;;;29.73;13.15;;;4.60;99.90;;;;;;5057901;28;20087;-67